Time;durP1;ratioP1;P1;durP2;ratioP2;P2;SDS_P1;SDS_P2;PMS_P1;PMS_P2;Temp;Humidity;BMP_temperature;BMP_pressure;BME280_temperature;BME280_humidity;BME280_pressure;Samples;Min_cycle;Max_cycle;Signal;HPM_P1;HPM_P2
2024/04/11 00:01:22;;;;;;;12.88;7.20;;;;;;;;;;4926695;28;20035;-73
2024/04/11 00:03:47;;;;;;;15.93;7.50;;;;;;;;;;4950340;28;20059;-72
2024/04/11 00:06:13;;;;;;;16.48;6.47;;;;;;;;;;4951120;28;20046;-73
2024/04/11 00:08:40;;;;;;;8.38;6.80;;;;;;;;;;4952136;28;20090;-72
2024/04/11 00:11:06;;;;;;;11.02;7.05;;;;;;;;;;4947395;28;20660;-72
2024/04/11 00:13:32;;;;;;;10.90;6.78;;;;;;;;;;4949784;28;20138;-73
2024/04/11 00:15:58;;;;;;;21.08;6.70;;;;;;;;;;4953561;28;20631;-73
2024/04/11 00:18:24;;;;;;;6.32;4.95;;;;;;;;;;4952192;28;20134;-73
2024/04/11 00:20:54;;;;;;;17.83;6.65;;;;;;;;;;4949308;28;20027;-74
2024/04/11 00:23:20;;;;;;;9.95;6.68;;;;;;;;;;4950428;28;20471;-73
2024/04/11 00:25:53;;;;;;;14.80;6.38;;;;;;;;;;4950898;28;20042;-73
2024/04/11 00:28:19;;;;;;;13.38;6.90;;;;;;;;;;4957997;28;20035;-73
2024/04/11 00:30:45;;;;;;;11.35;7.90;;;;;;;;;;4941732;29;20054;-73
2024/04/11 00:33:12;;;;;;;11.63;6.90;;;;;;;;;;4951009;28;20039;-73
2024/04/11 00:35:38;;;;;;;11.50;7.07;;;;;;;;;;4950643;28;20047;-73
2024/04/11 00:38:09;;;;;;;14.57;7.70;;;;;;;;;;4942572;28;20105;-72
2024/04/11 00:40:36;;;;;;;10.30;7.43;;;;;;;;;;4950596;28;20050;-71
2024/04/11 00:43:02;;;;;;;13.10;7.70;;;;;;;;;;4949940;28;21924;-73
2024/04/11 00:45:28;;;;;;;11.07;7.60;;;;;;;;;;4925092;29;20047;-72
2024/04/11 00:47:53;;;;;;;10.45;6.28;;;;;;;;;;4947845;29;20027;-71
2024/04/11 00:50:19;;;;;;;11.85;7.50;;;;;;;;;;4950806;28;20097;-72
2024/04/11 00:52:45;;;;;;;9.80;6.70;;;;;;;;;;4942705;28;20526;-73
2024/04/11 00:55:12;;;;;;;12.45;7.75;;;;;;;;;;4942332;28;20071;-72
2024/04/11 00:57:38;;;;;;;14.52;7.78;;;;;;;;;;4951067;28;20035;-72
2024/04/11 01:00:06;;;;;;;16.10;7.38;;;;;;;;;;4950579;28;20043;-73
2024/04/11 01:02:33;;;;;;;12.02;7.35;;;;;;;;;;4950227;28;20070;-72
2024/04/11 01:05:00;;;;;;;13.45;8.45;;;;;;;;;;4940807;28;20055;-72
2024/04/11 01:07:26;;;;;;;11.75;7.97;;;;;;;;;;4943522;28;20086;-72
2024/04/11 01:09:52;;;;;;;13.60;8.15;;;;;;;;;;4950254;28;20039;-72
2024/04/11 01:12:18;;;;;;;12.68;7.57;;;;;;;;;;4966048;28;20567;-72
2024/04/11 01:14:44;;;;;;;15.13;8.70;;;;;;;;;;4948125;28;20126;-72
2024/04/11 01:17:17;;;;;;;16.98;8.13;;;;;;;;;;4950413;28;20066;-72
2024/04/11 01:19:44;;;;;;;15.30;7.85;;;;;;;;;;4943034;28;20041;-71
2024/04/11 01:22:10;;;;;;;11.95;8.10;;;;;;;;;;4950536;28;20043;-72
2024/04/11 01:24:43;;;;;;;13.32;7.75;;;;;;;;;;4939911;28;20476;-71
2024/04/11 01:27:08;;;;;;;14.68;8.38;;;;;;;;;;4950500;28;20036;-72
2024/04/11 01:29:38;;;;;;;9.48;8.50;;;;;;;;;;4948749;28;20094;-72
2024/04/11 01:32:05;;;;;;;11.27;8.20;;;;;;;;;;4950602;28;20066;-71
2024/04/11 01:34:31;;;;;;;13.00;8.00;;;;;;;;;;4942709;28;20097;-73
2024/04/11 01:37:00;;;;;;;12.20;8.23;;;;;;;;;;4950382;28;20031;-72
2024/04/11 01:39:25;;;;;;;14.80;8.77;;;;;;;;;;4949380;28;20038;-72
2024/04/11 01:41:51;;;;;;;14.57;9.15;;;;;;;;;;4950022;28;20047;-71
2024/04/11 01:44:17;;;;;;;11.68;7.90;;;;;;;;;;4949314;28;20066;-73
2024/04/11 01:46:43;;;;;;;10.13;8.50;;;;;;;;;;4943130;28;20031;-71
2024/04/11 01:49:09;;;;;;;16.23;9.07;;;;;;;;;;4950218;28;20058;-73
2024/04/11 01:51:35;;;;;;;11.77;8.30;;;;;;;;;;4940535;29;20496;-72
2024/04/11 01:54:02;;;;;;;10.18;8.48;;;;;;;;;;4947941;28;20039;-72
2024/04/11 01:56:34;;;;;;;15.55;9.70;;;;;;;;;;4949941;28;20043;-72
2024/04/11 01:59:03;;;;;;;13.95;8.35;;;;;;;;;;4949850;28;20065;-72
2024/04/11 02:01:34;;;;;;;13.93;8.68;;;;;;;;;;4942858;28;20508;-72
2024/04/11 02:04:06;;;;;;;15.57;8.40;;;;;;;;;;4963716;28;20145;-74
2024/04/11 02:06:34;;;;;;;12.65;9.05;;;;;;;;;;4944006;29;20052;-72
2024/04/11 02:09:05;;;;;;;21.85;9.57;;;;;;;;;;4949791;28;20139;-73
2024/04/11 02:11:32;;;;;;;13.27;8.75;;;;;;;;;;4950217;28;20568;-72
2024/04/11 02:13:59;;;;;;;9.70;8.80;;;;;;;;;;4942059;28;20038;-73
2024/04/11 02:16:28;;;;;;;15.75;10.02;;;;;;;;;;4944283;28;20540;-73
2024/04/11 02:18:55;;;;;;;14.43;8.70;;;;;;;;;;4952476;28;20453;-73
2024/04/11 02:21:21;;;;;;;15.00;9.40;;;;;;;;;;4954262;28;20126;-74
2024/04/11 02:23:47;;;;;;;13.52;9.23;;;;;;;;;;4952258;28;20141;-73
2024/04/11 02:26:13;;;;;;;16.30;9.38;;;;;;;;;;4951537;28;20050;-74
2024/04/11 02:28:39;;;;;;;11.15;9.15;;;;;;;;;;4951816;28;20114;-73
2024/04/11 02:31:05;;;;;;;14.52;9.40;;;;;;;;;;4951934;28;20122;-73
2024/04/11 02:33:35;;;;;;;11.90;8.77;;;;;;;;;;4943770;28;20047;-74
2024/04/11 02:36:00;;;;;;;12.10;9.13;;;;;;;;;;4951152;29;20069;-74
2024/04/11 02:38:26;;;;;;;12.02;9.40;;;;;;;;;;4943902;29;20491;-73
2024/04/11 02:40:52;;;;;;;14.57;9.38;;;;;;;;;;4950319;28;20040;-73
2024/04/11 02:43:18;;;;;;;13.43;9.20;;;;;;;;;;4950951;28;20110;-74
2024/04/11 02:45:48;;;;;;;10.95;9.18;;;;;;;;;;4952888;28;20492;-73
2024/04/11 02:48:14;;;;;;;13.48;9.27;;;;;;;;;;4952734;28;20066;-72
2024/04/11 02:50:40;;;;;;;14.95;9.10;;;;;;;;;;4945551;29;20059;-73
2024/04/11 02:53:09;;;;;;;13.85;10.02;;;;;;;;;;4952073;28;20047;-73
2024/04/11 02:55:35;;;;;;;15.30;10.10;;;;;;;;;;4952234;28;20516;-73
2024/04/11 02:58:01;;;;;;;11.75;8.73;;;;;;;;;;4951268;28;20286;-73
2024/04/11 03:00:28;;;;;;;21.77;9.55;;;;;;;;;;4952524;28;20475;-73
2024/04/11 03:02:54;;;;;;;15.63;9.70;;;;;;;;;;4951335;28;20559;-73
2024/04/11 03:05:22;;;;;;;12.85;9.57;;;;;;;;;;4944410;29;20507;-73
2024/04/11 03:07:49;;;;;;;13.35;9.15;;;;;;;;;;4951486;28;20027;-72
2024/04/11 03:10:16;;;;;;;12.68;8.88;;;;;;;;;;4952044;28;20039;-73
2024/04/11 03:12:43;;;;;;;13.93;9.77;;;;;;;;;;4950110;28;20063;-73
2024/04/11 03:15:09;;;;;;;14.95;8.57;;;;;;;;;;4951445;28;20051;-73
2024/04/11 03:17:36;;;;;;;26.42;9.13;;;;;;;;;;4950072;28;20478;-73
2024/04/11 03:20:02;;;;;;;15.23;9.88;;;;;;;;;;4947123;28;20027;-73
2024/04/11 03:22:30;;;;;;;12.00;9.35;;;;;;;;;;4952154;28;20027;-72
2024/04/11 03:24:56;;;;;;;14.25;9.00;;;;;;;;;;4947692;28;20059;-73
2024/04/11 03:27:22;;;;;;;19.48;10.18;;;;;;;;;;4951144;28;20098;-72
2024/04/11 03:29:48;;;;;;;11.57;9.77;;;;;;;;;;4950951;28;20085;-72
2024/04/11 03:32:14;;;;;;;12.00;9.18;;;;;;;;;;4944167;28;20023;-73
2024/04/11 03:34:40;;;;;;;12.98;9.65;;;;;;;;;;4949519;28;20031;-72
2024/04/11 03:37:07;;;;;;;14.23;8.65;;;;;;;;;;4951610;28;20084;-73
2024/04/11 03:39:35;;;;;;;14.68;8.95;;;;;;;;;;4951394;28;20049;-74
2024/04/11 03:42:01;;;;;;;11.30;8.57;;;;;;;;;;4944760;28;20031;-74
2024/04/11 03:44:27;;;;;;;23.77;9.80;;;;;;;;;;4943562;28;20059;-74
2024/04/11 03:46:53;;;;;;;11.77;8.45;;;;;;;;;;4951579;28;20035;-73
2024/04/11 03:49:26;;;;;;;12.57;8.32;;;;;;;;;;4953894;28;20035;-73
2024/04/11 03:51:53;;;;;;;11.65;8.10;;;;;;;;;;4957527;28;20122;-74
2024/04/11 03:54:19;;;;;;;12.23;7.97;;;;;;;;;;4953556;28;20062;-74
2024/04/11 03:56:44;;;;;;;8.43;7.63;;;;;;;;;;4949667;28;20457;-73
2024/04/11 03:59:10;;;;;;;11.77;8.20;;;;;;;;;;4950838;28;20126;-73
2024/04/11 04:01:36;;;;;;;9.80;8.15;;;;;;;;;;4940201;29;20405;-75
2024/04/11 04:04:02;;;;;;;11.13;8.45;;;;;;;;;;4948384;28;20432;-73
2024/04/11 04:06:30;;;;;;;15.95;8.07;;;;;;;;;;4951326;28;20039;-74
2024/04/11 04:08:57;;;;;;;13.38;8.02;;;;;;;;;;4949927;28;20231;-73
2024/04/11 04:11:23;;;;;;;10.77;8.10;;;;;;;;;;4943013;29;20031;-73
2024/04/11 04:13:50;;;;;;;10.10;8.27;;;;;;;;;;4965312;28;20043;-73
2024/04/11 04:16:19;;;;;;;14.05;8.50;;;;;;;;;;4951045;28;20122;-74
2024/04/11 04:18:52;;;;;;;14.35;8.10;;;;;;;;;;4951096;28;20035;-73
2024/04/11 04:21:20;;;;;;;15.23;8.02;;;;;;;;;;4930993;29;20122;-73
2024/04/11 04:23:54;;;;;;;9.75;8.02;;;;;;;;;;4948697;28;20097;-74
2024/04/11 04:26:22;;;;;;;8.90;7.90;;;;;;;;;;4943772;28;20134;-73
2024/04/11 04:28:48;;;;;;;15.65;7.88;;;;;;;;;;4949599;28;20067;-72
2024/04/11 04:31:14;;;;;;;16.77;8.27;;;;;;;;;;4951373;28;20503;-72
2024/04/11 04:33:50;;;;;;;8.95;7.75;;;;;;;;;;4950558;28;20055;-73
2024/04/11 04:36:20;;;;;;;9.63;7.38;;;;;;;;;;4944080;29;20047;-73
2024/04/11 04:38:46;;;;;;;14.98;7.57;;;;;;;;;;4950214;28;20039;-72
2024/04/11 04:41:12;;;;;;;9.27;7.10;;;;;;;;;;4949580;28;21163;-72
2024/04/11 04:43:39;;;;;;;10.45;6.80;;;;;;;;;;4944751;28;20043;-73
2024/04/11 04:46:05;;;;;;;10.27;7.18;;;;;;;;;;4950837;28;20035;-72
2024/04/11 04:48:32;;;;;;;8.68;7.28;;;;;;;;;;4949124;28;20151;-74
2024/04/11 04:50:58;;;;;;;13.15;7.60;;;;;;;;;;4949362;28;20063;-73
2024/04/11 04:53:29;;;;;;;12.90;7.70;;;;;;;;;;4948243;28;20047;-73
2024/04/11 04:55:56;;;;;;;9.77;7.40;;;;;;;;;;4942037;28;20570;-74
2024/04/11 04:58:21;;;;;;;12.98;7.15;;;;;;;;;;4950255;28;20090;-74
2024/04/11 05:00:47;;;;;;;11.35;6.55;;;;;;;;;;4964653;28;20035;-74
2024/04/11 05:03:14;;;;;;;14.38;7.47;;;;;;;;;;4949635;28;20079;-74
2024/04/11 05:05:43;;;;;;;12.65;7.90;;;;;;;;;;4942533;28;20051;-75
2024/04/11 05:08:13;;;;;;;12.52;7.63;;;;;;;;;;4951330;28;20115;-75
2024/04/11 05:10:43;;;;;;;9.70;7.45;;;;;;;;;;4944544;29;20039;-73
2024/04/11 05:13:09;;;;;;;13.45;7.88;;;;;;;;;;4949252;28;20047;-74
2024/04/11 05:15:36;;;;;;;12.43;7.32;;;;;;;;;;4931007;29;20054;-75
2024/04/11 05:18:01;;;;;;;13.48;7.78;;;;;;;;;;4949385;28;20066;-75
2024/04/11 05:20:27;;;;;;;19.52;7.47;;;;;;;;;;4949805;28;20063;-72
2024/04/11 05:22:53;;;;;;;11.00;7.68;;;;;;;;;;4941819;29;20143;-73
2024/04/11 05:25:19;;;;;;;9.98;6.47;;;;;;;;;;4949299;28;20042;-73
2024/04/11 05:27:46;;;;;;;8.48;6.30;;;;;;;;;;4949454;28;20415;-73
2024/04/11 05:30:12;;;;;;;9.65;6.28;;;;;;;;;;4941337;29;20039;-74
2024/04/11 05:32:38;;;;;;;8.18;6.50;;;;;;;;;;4948907;28;20085;-73
2024/04/11 05:35:09;;;;;;;13.07;6.40;;;;;;;;;;4916533;29;20039;-73
2024/04/11 05:37:40;;;;;;;5.38;4.85;;;;;;;;;;4950573;28;20039;-73
2024/04/11 05:40:07;;;;;;;7.40;5.80;;;;;;;;;;4949289;28;20027;-72
2024/04/11 05:42:35;;;;;;;8.65;5.60;;;;;;;;;;4949538;28;20043;-73
2024/04/11 05:45:04;;;;;;;7.68;5.55;;;;;;;;;;4948362;28;20056;-73
2024/04/11 05:47:32;;;;;;;12.43;5.65;;;;;;;;;;4949631;28;20501;-74
2024/04/11 05:49:58;;;;;;;13.60;5.40;;;;;;;;;;4951430;28;20125;-74
2024/04/11 05:52:43;;;;;;;12.35;5.60;;;;;;;;;;4951219;28;20075;-74
2024/04/11 05:55:10;;;;;;;14.93;5.60;;;;;;;;;;4946945;29;20112;-74
2024/04/11 05:57:36;;;;;;;12.48;5.68;;;;;;;;;;4953495;28;20039;-74
2024/04/11 06:00:03;;;;;;;7.20;5.43;;;;;;;;;;4950745;28;20880;-74
2024/04/11 06:02:38;;;;;;;10.85;5.35;;;;;;;;;;4949132;28;20031;-75
2024/04/11 06:05:06;;;;;;;13.30;4.88;;;;;;;;;;4952537;28;20534;-74
2024/04/11 06:07:32;;;;;;;6.60;5.00;;;;;;;;;;4954345;28;20035;-72
2024/04/11 06:10:00;;;;;;;12.25;5.70;;;;;;;;;;4952199;28;20027;-73
2024/04/11 06:12:26;;;;;;;10.73;5.65;;;;;;;;;;4948542;28;20050;-72
2024/04/11 06:14:53;;;;;;;12.10;5.50;;;;;;;;;;4931987;28;20047;-73
2024/04/11 06:17:19;;;;;;;9.60;5.40;;;;;;;;;;4965338;28;20039;-74
2024/04/11 06:19:45;;;;;;;7.75;5.93;;;;;;;;;;4961307;28;20039;-74
2024/04/11 06:22:11;;;;;;;13.25;6.00;;;;;;;;;;4946429;29;20478;-72
2024/04/11 06:24:37;;;;;;;19.20;6.28;;;;;;;;;;4939840;28;20217;-73
2024/04/11 06:27:05;;;;;;;11.80;5.88;;;;;;;;;;4953077;28;20113;-73
2024/04/11 06:29:37;;;;;;;11.88;5.95;;;;;;;;;;4951403;28;20046;-73
2024/04/11 06:32:12;;;;;;;9.38;6.50;;;;;;;;;;4942973;28;20031;-73
2024/04/11 06:34:41;;;;;;;6.53;5.53;;;;;;;;;;4913034;28;20055;-72
2024/04/11 06:37:11;;;;;;;8.85;5.32;;;;;;;;;;4947902;28;20147;-73
2024/04/11 06:39:40;;;;;;;8.15;5.25;;;;;;;;;;4937338;28;20029;-73
2024/04/11 06:42:13;;;;;;;8.73;4.80;;;;;;;;;;4947676;28;20038;-74
2024/04/11 06:44:49;;;;;;;9.82;5.10;;;;;;;;;;4945481;28;20058;-72
2024/04/11 06:47:17;;;;;;;11.45;5.70;;;;;;;;;;4943670;28;20037;-73
2024/04/11 06:49:43;;;;;;;13.10;5.43;;;;;;;;;;4948597;28;20039;-75
2024/04/11 06:52:14;;;;;;;10.68;4.97;;;;;;;;;;4961307;28;20094;-73
2024/04/11 06:54:46;;;;;;;5.57;4.68;;;;;;;;;;4958580;28;20047;-73
2024/04/11 06:57:15;;;;;;;6.93;4.68;;;;;;;;;;4950241;28;20110;-74
2024/04/11 06:59:40;;;;;;;5.88;4.15;;;;;;;;;;4949353;28;20045;-74
2024/04/11 07:02:07;;;;;;;9.57;4.15;;;;;;;;;;4951396;28;20035;-74
2024/04/11 07:04:33;;;;;;;6.18;4.15;;;;;;;;;;4938536;28;20690;-78
2024/04/11 07:07:00;;;;;;;7.22;5.80;;;;;;;;;;4960541;28;20023;-77
2024/04/11 07:09:37;;;;;;;10.02;4.07;;;;;;;;;;4936074;28;20035;-81
2024/04/11 07:12:06;;;;;;;8.40;4.53;;;;;;;;;;4972649;28;20030;-79
2024/04/11 07:14:33;;;;;;;8.48;3.42;;;;;;;;;;4956958;28;20354;-78
2024/04/11 07:16:59;;;;;;;6.78;4.07;;;;;;;;;;4963659;28;20118;-78
2024/04/11 07:19:27;;;;;;;3.67;3.22;;;;;;;;;;4962076;28;20040;-81
2024/04/11 07:21:52;;;;;;;8.85;3.42;;;;;;;;;;4982726;28;20027;-82
2024/04/11 07:24:23;;;;;;;7.60;3.85;;;;;;;;;;4971551;28;20078;-81
2024/04/11 07:26:51;;;;;;;;;;;;;;;;;;4952984;29;20039;-79
2024/04/11 07:29:18;;;;;;;10.63;4.40;;;;;;;;;;4966980;28;20087;-75
2024/04/11 07:31:46;;;;;;;13.00;3.78;;;;;;;;;;4962310;28;20039;-78
2024/04/11 07:34:14;;;;;;;13.13;3.80;;;;;;;;;;4954427;28;20061;-77
2024/04/11 07:36:41;;;;;;;6.80;3.63;;;;;;;;;;4957699;28;20056;-77
2024/04/11 07:39:08;;;;;;;5.68;3.70;;;;;;;;;;4953971;28;20043;-76
2024/04/11 07:41:47;;;;;;;15.73;3.90;;;;;;;;;;4941541;28;20142;-77
2024/04/11 07:44:17;;;;;;;9.32;4.15;;;;;;;;;;4956226;28;20050;-78
2024/04/11 07:46:44;;;;;;;3.78;2.72;;;;;;;;;;4943389;28;20035;-76
2024/04/11 07:49:11;;;;;;;5.82;3.20;;;;;;;;;;4965586;28;20089;-78
2024/04/11 07:51:36;;;;;;;8.60;3.30;;;;;;;;;;4950129;28;20081;-77
2024/04/11 07:54:12;;;;;;;10.88;3.80;;;;;;;;;;4944313;28;20579;-78
2024/04/11 07:56:39;;;;;;;9.93;4.00;;;;;;;;;;4943983;28;20134;-79
2024/04/11 07:59:06;;;;;;;6.65;3.40;;;;;;;;;;4947040;28;20115;-78
2024/04/11 08:01:34;;;;;;;14.25;3.60;;;;;;;;;;4947585;28;20598;-78
2024/04/11 08:04:01;;;;;;;8.07;3.50;;;;;;;;;;4951695;28;20299;-77
2024/04/11 08:06:27;;;;;;;13.25;3.67;;;;;;;;;;4947355;28;20142;-77
2024/04/11 08:08:54;;;;;;;7.82;3.30;;;;;;;;;;4946829;28;20042;-75
2024/04/11 08:11:20;;;;;;;4.88;3.28;;;;;;;;;;4956046;28;20178;-75
2024/04/11 08:13:48;;;;;;;8.35;3.53;;;;;;;;;;4965714;28;20145;-75
2024/04/11 08:16:15;;;;;;;4.85;3.65;;;;;;;;;;4948510;28;20230;-74
2024/04/11 08:18:41;;;;;;;11.38;3.28;;;;;;;;;;4949677;28;20035;-78
2024/04/11 08:21:11;;;;;;;9.27;3.45;;;;;;;;;;4955017;28;20043;-75
2024/04/11 08:23:37;;;;;;;8.77;2.72;;;;;;;;;;4938151;28;20043;-75
2024/04/11 08:26:03;;;;;;;13.32;3.70;;;;;;;;;;4958575;28;20031;-76
2024/04/11 08:28:29;;;;;;;16.52;3.60;;;;;;;;;;4946715;28;20507;-74
2024/04/11 08:30:55;;;;;;;12.65;2.65;;;;;;;;;;4943637;28;20050;-75
2024/04/11 08:33:21;;;;;;;10.35;2.78;;;;;;;;;;4946161;28;20054;-75
2024/04/11 08:35:47;;;;;;;3.58;2.50;;;;;;;;;;4952395;28;20073;-75
2024/04/11 08:38:15;;;;;;;6.47;2.72;;;;;;;;;;4950326;28;20492;-74
2024/04/11 08:40:44;;;;;;;2.35;1.90;;;;;;;;;;4932431;28;20031;-75
2024/04/11 08:43:11;;;;;;;6.40;2.72;;;;;;;;;;4949698;28;20623;-75
2024/04/11 08:45:37;;;;;;;6.60;2.38;;;;;;;;;;4953478;28;20039;-74
2024/04/11 08:48:03;;;;;;;2.80;1.92;;;;;;;;;;4965082;28;20400;-75
2024/04/11 08:50:29;;;;;;;7.25;2.38;;;;;;;;;;4941226;28;20046;-75
2024/04/11 08:52:55;;;;;;;2.63;2.20;;;;;;;;;;4948572;28;20034;-75
2024/04/11 08:55:21;;;;;;;7.82;2.47;;;;;;;;;;4935838;28;20054;-75
2024/04/11 08:57:47;;;;;;;4.30;2.50;;;;;;;;;;4956383;28;20035;-75
2024/04/11 09:00:13;;;;;;;7.63;2.50;;;;;;;;;;4956622;28;20035;-74
2024/04/11 09:02:41;;;;;;;4.80;2.20;;;;;;;;;;4954613;28;20090;-75
2024/04/11 09:05:10;;;;;;;2.65;2.20;;;;;;;;;;4953734;28;20518;-76
2024/04/11 09:07:39;;;;;;;7.28;2.45;;;;;;;;;;4950975;28;20047;-75
2024/04/11 09:10:07;;;;;;;4.65;2.38;;;;;;;;;;4954461;28;20035;-74
2024/04/11 09:12:33;;;;;;;5.28;2.65;;;;;;;;;;4943780;28;20134;-75
2024/04/11 09:14:58;;;;;;;7.05;2.92;;;;;;;;;;4938730;28;20047;-75
2024/04/11 09:17:27;;;;;;;2.65;2.45;;;;;;;;;;4953834;28;20197;-75
2024/04/11 09:20:00;;;;;;;7.78;2.83;;;;;;;;;;4955981;28;20463;-75
2024/04/11 09:22:26;;;;;;;11.35;3.05;;;;;;;;;;4945320;28;20468;-75
2024/04/11 09:24:51;;;;;;;4.68;2.83;;;;;;;;;;4945403;28;20570;-74
2024/04/11 09:27:17;;;;;;;9.57;2.70;;;;;;;;;;4954792;28;20043;-74
2024/04/11 09:29:43;;;;;;;7.78;3.15;;;;;;;;;;4952038;28;20044;-74
2024/04/11 09:32:12;;;;;;;8.43;3.08;;;;;;;;;;4958896;28;20047;-73
2024/04/11 09:34:39;;;;;;;6.60;3.05;;;;;;;;;;4948134;28;20046;-73
2024/04/11 09:37:13;;;;;;;4.65;3.25;;;;;;;;;;4946902;28;20081;-74
2024/04/11 09:39:48;;;;;;;9.18;3.00;;;;;;;;;;4952052;28;20110;-73
2024/04/11 09:42:25;;;;;;;3.20;1.77;;;;;;;;;;4929059;28;20484;-72
2024/04/11 09:44:55;;;;;;;8.23;3.42;;;;;;;;;;4948708;28;20344;-73
2024/04/11 09:47:28;;;;;;;10.85;3.42;;;;;;;;;;4958596;28;20122;-73
2024/04/11 09:49:59;;;;;;;3.30;3.10;;;;;;;;;;4947102;28;20032;-73
2024/04/11 09:52:27;;;;;;;19.23;3.38;;;;;;;;;;4959949;28;20049;-73
2024/04/11 09:54:55;;;;;;;10.05;3.05;;;;;;;;;;4953570;28;20424;-72
2024/04/11 09:57:21;;;;;;;11.40;3.53;;;;;;;;;;4954301;28;20507;-72
2024/04/11 09:59:47;;;;;;;3.08;2.42;;;;;;;;;;4957517;28;20038;-73
2024/04/11 10:02:16;;;;;;;3.10;1.95;;;;;;;;;;4970988;28;20039;-73
2024/04/11 10:04:44;;;;;;;1.75;1.65;;;;;;;;;;4958721;28;20091;-73
2024/04/11 10:07:12;;;;;;;3.78;2.03;;;;;;;;;;4940641;28;20035;-73
2024/04/11 10:09:46;;;;;;;3.35;2.10;;;;;;;;;;4958928;28;20027;-73
2024/04/11 10:12:15;;;;;;;3.67;1.80;;;;;;;;;;4958280;28;20141;-74
2024/04/11 10:14:44;;;;;;;5.00;2.15;;;;;;;;;;4966365;28;20046;-73
2024/04/11 10:17:13;;;;;;;5.20;2.00;;;;;;;;;;4955048;28;20038;-73
2024/04/11 10:19:47;;;;;;;2.58;1.83;;;;;;;;;;4954226;28;20035;-73
2024/04/11 10:22:24;;;;;;;3.25;1.85;;;;;;;;;;4972496;28;20038;-73
2024/04/11 10:24:50;;;;;;;3.58;2.20;;;;;;;;;;4960469;28;20061;-73
2024/04/11 10:27:19;;;;;;;2.45;1.92;;;;;;;;;;4956733;28;20031;-72
2024/04/11 10:29:50;;;;;;;3.50;2.33;;;;;;;;;;4943949;28;20101;-74
2024/04/11 10:32:21;;;;;;;;;;;;;;;;;;4935698;28;20035;-73
2024/04/11 10:34:57;;;;;;;2.03;1.70;;;;;;;;;;4958756;28;19934;-74
2024/04/11 10:37:29;;;;;;;6.80;1.75;;;;;;;;;;4941903;28;20122;-75
2024/04/11 10:39:57;;;;;;;1.98;1.75;;;;;;;;;;4957222;28;20039;-75
2024/04/11 10:42:36;;;;;;;5.28;2.42;;;;;;;;;;4959389;28;20066;-73
2024/04/11 10:45:11;;;;;;;3.88;1.80;;;;;;;;;;4951378;28;20121;-73
2024/04/11 10:47:38;;;;;;;2.05;1.85;;;;;;;;;;4945609;28;20054;-73
2024/04/11 10:50:09;;;;;;;3.92;2.40;;;;;;;;;;4950984;28;20038;-73
2024/04/11 10:52:38;;;;;;;3.42;2.30;;;;;;;;;;4949873;28;20034;-73
2024/04/11 10:55:12;;;;;;;5.78;2.10;;;;;;;;;;4973144;28;20039;-73
2024/04/11 10:57:42;;;;;;;6.90;1.92;;;;;;;;;;4931854;28;20037;-73
2024/04/11 11:00:10;;;;;;;1.35;1.23;;;;;;;;;;4960177;28;20031;-74
2024/04/11 11:02:37;;;;;;;3.63;1.35;;;;;;;;;;4963503;28;20050;-73
2024/04/11 11:05:06;;;;;;;1.42;1.42;;;;;;;;;;4945904;28;20055;-73
2024/04/11 11:07:32;;;;;;;1.83;1.10;;;;;;;;;;4951985;28;20265;-73
2024/04/11 11:09:59;;;;;;;2.42;1.42;;;;;;;;;;4964744;28;20035;-74
2024/04/11 11:12:25;;;;;;;2.08;1.70;;;;;;;;;;4956334;28;20398;-74
2024/04/11 11:14:53;;;;;;;3.45;1.50;;;;;;;;;;4959001;28;20047;-74
2024/04/11 11:17:18;;;;;;;1.75;1.55;;;;;;;;;;4959782;28;20555;-75
2024/04/11 11:19:44;;;;;;;4.03;1.73;;;;;;;;;;4949635;28;20122;-73
2024/04/11 11:22:11;;;;;;;1.58;1.45;;;;;;;;;;4945483;28;20531;-74
2024/04/11 11:24:37;;;;;;;4.40;1.70;;;;;;;;;;4966821;28;20047;-74
2024/04/11 11:27:05;;;;;;;1.38;1.27;;;;;;;;;;4957622;28;20054;-75
2024/04/11 11:29:31;;;;;;;4.90;1.92;;;;;;;;;;4956596;28;20059;-74
2024/04/11 11:32:18;;;;;;;1.80;1.63;;;;;;;;;;4951134;28;20032;-75
2024/04/11 11:34:46;;;;;;;4.55;1.90;;;;;;;;;;4946813;28;20048;-74
2024/04/11 11:37:13;;;;;;;4.30;2.15;;;;;;;;;;4951342;28;20543;-74
2024/04/11 11:39:42;;;;;;;6.65;2.42;;;;;;;;;;4944131;28;20031;-74
2024/04/11 11:42:26;;;;;;;4.87;2.00;;;;;;;;;;4954674;28;20046;-75
2024/04/11 11:47:34;;;;;;;7.28;2.10;;;;;;;;;;4954300;28;20035;-75
2024/04/11 11:50:35;;;;;;;1.95;1.85;;;;;;;;;;4956897;28;20039;-74
2024/04/11 11:53:24;;;;;;;9.23;2.45;;;;;;;;;;4943617;28;20039;-74
2024/04/11 11:55:57;;;;;;;4.67;2.40;;;;;;;;;;4955231;28;20042;-74
2024/04/11 11:58:29;;;;;;;6.38;2.28;;;;;;;;;;4956282;28;20125;-73
2024/04/11 12:01:02;;;;;;;2.35;2.08;;;;;;;;;;4949958;28;20090;-73
2024/04/11 12:03:31;;;;;;;3.10;2.33;;;;;;;;;;4953705;28;20051;-74
2024/04/11 12:05:58;;;;;;;1.55;1.45;;;;;;;;;;4951274;28;20062;-74
2024/04/11 12:08:25;;;;;;;1.45;1.40;;;;;;;;;;4955042;28;20468;-74
2024/04/11 12:13:34;;;;;;;1.85;1.60;;;;;;;;;;4954793;28;20606;-73
2024/04/11 12:16:03;;;;;;;9.43;2.03;;;;;;;;;;4956426;28;20058;-74
2024/04/11 12:18:30;;;;;;;5.80;1.75;;;;;;;;;;4954931;28;20039;-74
2024/04/11 12:20:57;;;;;;;2.10;1.67;;;;;;;;;;4968537;28;20385;-73
2024/04/11 12:23:23;;;;;;;3.90;1.63;;;;;;;;;;4940479;28;20069;-74
2024/04/11 12:25:52;;;;;;;3.42;2.20;;;;;;;;;;4949499;28;20038;-74
2024/04/11 12:28:22;;;;;;;1.90;1.80;;;;;;;;;;4954240;28;20038;-75
2024/04/11 12:30:59;;;;;;;4.77;1.60;;;;;;;;;;4946255;28;20086;-75
2024/04/11 12:33:27;;;;;;;4.40;2.20;;;;;;;;;;4967571;28;20138;-75
2024/04/11 12:35:56;;;;;;;6.38;1.98;;;;;;;;;;4951405;28;20039;-74
2024/04/11 12:38:24;;;;;;;3.67;1.77;;;;;;;;;;4955427;28;20101;-75
2024/04/11 12:40:50;;;;;;;2.05;1.95;;;;;;;;;;4952040;28;20054;-74
2024/04/11 12:43:16;;;;;;;1.63;1.52;;;;;;;;;;4948934;28;20469;-74
2024/04/11 12:45:52;;;;;;;5.03;2.63;;;;;;;;;;4945712;28;20156;-74
2024/04/11 12:48:21;;;;;;;1.75;1.63;;;;;;;;;;4955915;28;20078;-77
2024/04/11 12:50:50;;;;;;;7.97;2.20;;;;;;;;;;4964360;28;20130;-77
2024/04/11 12:53:21;;;;;;;4.47;2.33;;;;;;;;;;4968407;28;20038;-75
2024/04/11 12:55:52;;;;;;;9.75;2.50;;;;;;;;;;4966007;28;20027;-76
2024/04/11 12:58:24;;;;;;;2.10;1.90;;;;;;;;;;4957768;28;20062;-75
2024/04/11 13:01:03;;;;;;;1.88;1.67;;;;;;;;;;4961246;28;20035;-75
2024/04/11 13:06:08;;;;;;;3.35;2.22;;;;;;;;;;4972157;28;20055;-75
2024/04/11 13:08:34;;;;;;;5.72;2.00;;;;;;;;;;4949899;28;20391;-77
2024/04/11 13:11:06;;;;;;;3.30;1.60;;;;;;;;;;4930829;28;20039;-76
2024/04/11 13:13:32;;;;;;;6.03;1.60;;;;;;;;;;4953397;28;20047;-76
2024/04/11 13:16:01;;;;;;;3.22;1.67;;;;;;;;;;4951260;28;20042;-76
2024/04/11 13:18:30;;;;;;;2.15;1.70;;;;;;;;;;4966862;28;20531;-75
2024/04/11 13:20:55;;;;;;;5.13;1.60;;;;;;;;;;4948453;28;20039;-74
2024/04/11 13:23:22;;;;;;;6.80;2.20;;;;;;;;;;4949657;28;20079;-74
2024/04/11 13:25:48;;;;;;;5.38;2.00;;;;;;;;;;4956813;28;20039;-78
2024/04/11 13:28:14;;;;;;;5.40;1.88;;;;;;;;;;4952721;28;20053;-75
2024/04/11 13:30:43;;;;;;;3.97;1.90;;;;;;;;;;4967264;28;20519;-78
2024/04/11 13:33:14;;;;;;;6.00;1.92;;;;;;;;;;4982696;28;20438;-79
2024/04/11 13:35:49;;;;;;;3.53;1.85;;;;;;;;;;4969242;28;20046;-81
2024/04/11 13:38:17;;;;;;;1.15;1.05;;;;;;;;;;4968738;28;20062;-80
2024/04/11 13:43:29;;;;;;;5.13;1.63;;;;;;;;;;4976606;28;20046;-84
2024/04/11 13:46:18;;;;;;;2.17;1.90;;;;;;;;;;4976089;28;20047;-83
2024/04/11 13:48:47;;;;;;;3.60;1.95;;;;;;;;;;4975566;28;20047;-83
2024/04/11 13:51:17;;;;;;;6.28;2.00;;;;;;;;;;4980879;28;20043;-86
2024/04/11 13:53:54;;;;;;;6.15;2.15;;;;;;;;;;4989921;28;20050;-85
2024/04/11 13:56:22;;;;;;;5.82;2.47;;;;;;;;;;4980582;28;20089;-86
2024/04/11 13:58:51;;;;;;;8.48;2.50;;;;;;;;;;4978804;28;20102;-84
2024/04/11 14:01:27;;;;;;;3.38;3.08;;;;;;;;;;5004848;28;20083;-84
2024/04/11 14:03:57;;;;;;;4.72;2.70;;;;;;;;;;4979150;28;20023;-85
2024/04/11 14:06:39;;;;;;;2.80;2.22;;;;;;;;;;4982804;28;20034;-84
2024/04/11 14:09:10;;;;;;;3.17;2.55;;;;;;;;;;4990824;28;20035;-84
2024/04/11 14:11:36;;;;;;;2.70;2.50;;;;;;;;;;4989664;28;20078;-82
2024/04/11 14:14:04;;;;;;;8.18;2.63;;;;;;;;;;5009567;28;20546;-84
2024/04/11 14:19:15;;;;;;;3.05;1.90;;;;;;;;;;4994401;28;20054;-82
2024/04/11 14:21:53;;;;;;;2.10;1.98;;;;;;;;;;4988168;28;20102;-83
2024/04/11 14:24:35;;;;;;;2.60;2.40;;;;;;;;;;4978325;28;20059;-84
2024/04/11 14:27:07;;;;;;;3.50;1.92;;;;;;;;;;4984846;28;20094;-84
2024/04/11 14:29:34;;;;;;;2.72;2.28;;;;;;;;;;4979949;28;20111;-85
2024/04/11 14:32:00;;;;;;;10.55;2.10;;;;;;;;;;4987080;28;20011;-85
2024/04/11 14:37:19;;;;;;;12.15;2.13;;;;;;;;;;4992898;28;20027;-85
2024/04/11 14:39:47;;;;;;;9.70;2.08;;;;;;;;;;4982271;28;20040;-84
2024/04/11 14:42:22;;;;;;;4.65;1.52;;;;;;;;;;4969125;28;20074;-84
2024/04/11 14:44:53;;;;;;;10.10;2.30;;;;;;;;;;4978246;28;20054;-84
2024/04/11 14:47:19;;;;;;;4.03;1.70;;;;;;;;;;4987416;28;20027;-86
2024/04/11 14:49:49;;;;;;;6.20;2.10;;;;;;;;;;4984321;28;20038;-86
2024/04/11 14:52:19;;;;;;;4.68;2.10;;;;;;;;;;4995044;28;20019;-81
2024/04/11 17:26:35;;;;;;;14.95;8.15;;;;;;;;;;4900572;23;20050;-84
2024/04/11 17:32:12;;;;;;;4.95;2.28;;;;;;;;;;5029982;28;20037;-84
2024/04/11 17:34:47;;;;;;;11.93;2.80;;;;;;;;;;5037819;28;20068;-84
2024/04/11 17:37:17;;;;;;;4.72;2.97;;;;;;;;;;5008962;28;20045;-84